Time;durP1;ratioP1;P1;durP2;ratioP2;P2;SDS_P1;SDS_P2;PMS_P1;PMS_P2;Temp;Humidity;BMP_temperature;BMP_pressure;BME280_temperature;BME280_humidity;BME280_pressure;Samples;Min_cycle;Max_cycle;Signal;HPM_P1;HPM_P2
2021/06/28 00:01:31;;;;;;;26.33;9.45;;;;;;;;;;5038320;28;20619;-74
2021/06/28 00:03:57;;;;;;;27.38;9.50;;;;;;;;;;5046776;28;20016;-75
2021/06/28 00:06:23;;;;;;;23.83;9.73;;;;;;;;;;5046490;28;20021;-74
2021/06/28 00:08:50;;;;;;;26.60;9.35;;;;;;;;;;5042711;28;20475;-74
2021/06/28 00:11:18;;;;;;;26.92;9.38;;;;;;;;;;5037835;28;20553;-74
2021/06/28 00:13:44;;;;;;;23.90;8.35;;;;;;;;;;5045891;28;20071;-75
2021/06/28 00:16:12;;;;;;;26.77;9.05;;;;;;;;;;5046402;28;20472;-74
2021/06/28 00:18:39;;;;;;;22.02;8.50;;;;;;;;;;5045572;28;20079;-74
2021/06/28 00:21:05;;;;;;;23.38;8.75;;;;;;;;;;5046574;28;20017;-74
2021/06/28 00:23:32;;;;;;;30.02;10.70;;;;;;;;;;5045992;28;20033;-74
2021/06/28 00:25:58;;;;;;;22.17;9.13;;;;;;;;;;5044441;28;20164;-74
2021/06/28 00:28:24;;;;;;;33.40;10.80;;;;;;;;;;5051864;28;20043;-74
2021/06/28 00:30:51;;;;;;;28.63;9.95;;;;;;;;;;5066062;28;20133;-74
2021/06/28 00:33:19;;;;;;;32.72;12.18;;;;;;;;;;5063234;28;20056;-75
2021/06/28 00:35:46;;;;;;;30.13;10.25;;;;;;;;;;5055108;28;20024;-74
2021/06/28 00:38:12;;;;;;;34.00;11.02;;;;;;;;;;5065616;28;20035;-75
2021/06/28 00:40:39;;;;;;;27.55;9.77;;;;;;;;;;5065896;28;20048;-74
2021/06/28 00:43:06;;;;;;;23.48;10.55;;;;;;;;;;5065287;28;20037;-74
2021/06/28 00:45:34;;;;;;;26.92;9.93;;;;;;;;;;5063963;28;20021;-74
2021/06/28 00:48:03;;;;;;;28.13;9.98;;;;;;;;;;5065794;28;20282;-75
2021/06/28 00:50:30;;;;;;;25.13;10.18;;;;;;;;;;5065743;28;20333;-75
2021/06/28 00:53:00;;;;;;;25.88;9.32;;;;;;;;;;5066017;28;20040;-74
2021/06/28 00:55:26;;;;;;;23.70;9.10;;;;;;;;;;5065284;28;20033;-73
2021/06/28 00:57:52;;;;;;;58.00;11.73;;;;;;;;;;5065424;28;20036;-74
2021/06/28 01:00:19;;;;;;;35.58;10.75;;;;;;;;;;5046043;28;20395;-75
2021/06/28 01:02:46;;;;;;;31.15;9.80;;;;;;;;;;5064990;28;20028;-74
2021/06/28 01:05:17;;;;;;;29.33;10.88;;;;;;;;;;5065760;28;20103;-74
2021/06/28 01:07:44;;;;;;;24.92;10.15;;;;;;;;;;5065263;28;20047;-74
2021/06/28 01:10:11;;;;;;;23.80;9.30;;;;;;;;;;5060660;28;20035;-74
2021/06/28 01:12:37;;;;;;;23.05;9.65;;;;;;;;;;5064661;28;20380;-75
2021/06/28 01:15:04;;;;;;;30.20;9.57;;;;;;;;;;5063714;28;20032;-75
2021/06/28 01:17:31;;;;;;;28.23;9.82;;;;;;;;;;5065085;28;20520;-74
2021/06/28 01:20:00;;;;;;;26.45;9.20;;;;;;;;;;5065077;28;20044;-74
2021/06/28 01:22:29;;;;;;;25.30;10.05;;;;;;;;;;5064942;28;20040;-74
2021/06/28 01:24:56;;;;;;;19.52;9.18;;;;;;;;;;5063239;28;20548;-74
2021/06/28 01:27:22;;;;;;;27.85;9.88;;;;;;;;;;5065275;28;20025;-75
2021/06/28 01:29:49;;;;;;;26.15;10.30;;;;;;;;;;5040302;28;20053;-74
2021/06/28 01:32:15;;;;;;;27.48;9.85;;;;;;;;;;5035180;28;20051;-74
2021/06/28 01:34:41;;;;;;;25.88;8.85;;;;;;;;;;5034728;28;20441;-74
2021/06/28 01:37:20;;;;;;;26.88;9.80;;;;;;;;;;5036148;28;20416;-74
2021/06/28 01:39:47;;;;;;;27.00;11.02;;;;;;;;;;5029265;28;20038;-75
2021/06/28 01:42:13;;;;;;;27.27;10.88;;;;;;;;;;5035242;28;20498;-74
2021/06/28 01:44:39;;;;;;;26.27;10.38;;;;;;;;;;5033789;28;21671;-74
2021/06/28 01:47:05;;;;;;;29.08;10.02;;;;;;;;;;5035294;28;20021;-75
2021/06/28 01:49:31;;;;;;;29.17;10.57;;;;;;;;;;5037751;28;20074;-74
2021/06/28 01:51:58;;;;;;;30.00;11.07;;;;;;;;;;5030476;28;20026;-74
2021/06/28 01:54:27;;;;;;;24.17;9.90;;;;;;;;;;5036611;28;20442;-74
2021/06/28 01:56:53;;;;;;;21.65;9.60;;;;;;;;;;5032607;28;20032;-74
2021/06/28 01:59:23;;;;;;;25.58;11.02;;;;;;;;;;5039318;28;20029;-74
2021/06/28 02:01:49;;;;;;;21.10;9.90;;;;;;;;;;5037197;28;20030;-74
2021/06/28 02:04:18;;;;;;;25.40;11.20;;;;;;;;;;5037992;28;20021;-75
2021/06/28 02:06:45;;;;;;;29.42;10.25;;;;;;;;;;5039947;28;20075;-75
2021/06/28 02:09:11;;;;;;;23.70;10.02;;;;;;;;;;5048853;28;20484;-75
2021/06/28 02:11:37;;;;;;;27.90;10.55;;;;;;;;;;5050867;28;20520;-74
2021/06/28 02:14:03;;;;;;;23.42;10.20;;;;;;;;;;5038153;28;20412;-74
2021/06/28 02:16:29;;;;;;;25.15;11.40;;;;;;;;;;5038052;28;20465;-74
2021/06/28 02:18:55;;;;;;;26.75;12.88;;;;;;;;;;5038008;28;20380;-74
2021/06/28 02:21:21;;;;;;;31.55;12.98;;;;;;;;;;5036556;28;20503;-74
2021/06/28 02:23:47;;;;;;;30.88;13.00;;;;;;;;;;5052674;28;20033;-74
2021/06/28 02:26:14;;;;;;;28.52;11.77;;;;;;;;;;5035725;28;20083;-74
2021/06/28 02:28:42;;;;;;;27.33;11.48;;;;;;;;;;5046468;28;20045;-74
2021/06/28 02:31:09;;;;;;;33.13;9.93;;;;;;;;;;5068468;28;20020;-74
2021/06/28 02:33:35;;;;;;;27.52;11.10;;;;;;;;;;5067936;28;20028;-74
2021/06/28 02:36:01;;;;;;;33.35;12.75;;;;;;;;;;5068251;28;20433;-75
2021/06/28 02:38:28;;;;;;;26.00;11.63;;;;;;;;;;5066529;28;20107;-75
2021/06/28 02:40:54;;;;;;;31.15;12.68;;;;;;;;;;5067819;28;20032;-74
2021/06/28 02:43:21;;;;;;;26.25;11.77;;;;;;;;;;5064825;28;20025;-74
2021/06/28 02:45:47;;;;;;;29.45;11.57;;;;;;;;;;5066435;28;20045;-74
2021/06/28 02:48:13;;;;;;;23.30;10.73;;;;;;;;;;5068193;28;20435;-74
2021/06/28 02:50:40;;;;;;;27.35;11.40;;;;;;;;;;5066381;28;20024;-74
2021/06/28 02:53:06;;;;;;;30.27;12.85;;;;;;;;;;5067265;28;20131;-74
2021/06/28 02:55:32;;;;;;;31.65;13.50;;;;;;;;;;5067929;28;20028;-74
2021/06/28 02:57:59;;;;;;;88.70;16.58;;;;;;;;;;5067533;28;20078;-74
2021/06/28 03:00:25;;;;;;;30.45;11.88;;;;;;;;;;5067524;28;20025;-74
2021/06/28 03:02:52;;;;;;;34.13;12.00;;;;;;;;;;5062058;28;20777;-74
2021/06/28 03:05:19;;;;;;;28.40;9.50;;;;;;;;;;5060922;28;20460;-75
2021/06/28 03:07:45;;;;;;;24.48;10.00;;;;;;;;;;5062485;28;20032;-74
2021/06/28 03:10:13;;;;;;;23.00;9.98;;;;;;;;;;5062765;28;20029;-74
2021/06/28 03:12:39;;;;;;;24.42;10.68;;;;;;;;;;5062419;28;20455;-74
2021/06/28 03:15:07;;;;;;;28.00;11.68;;;;;;;;;;5062462;28;20504;-74
2021/06/28 03:17:33;;;;;;;28.77;11.93;;;;;;;;;;5061139;28;20052;-75
2021/06/28 03:19:59;;;;;;;22.67;10.50;;;;;;;;;;5062334;28;20020;-75
2021/06/28 03:22:26;;;;;;;26.85;11.48;;;;;;;;;;5062305;28;20511;-74
2021/06/28 03:24:52;;;;;;;33.28;11.65;;;;;;;;;;5062347;28;20034;-74
2021/06/28 03:27:18;;;;;;;26.05;11.05;;;;;;;;;;5060527;28;20463;-74
2021/06/28 03:29:44;;;;;;;33.13;10.98;;;;;;;;;;5062335;28;20169;-74
2021/06/28 03:32:10;;;;;;;24.25;11.13;;;;;;;;;;5062305;28;20024;-74
2021/06/28 03:34:37;;;;;;;22.88;10.35;;;;;;;;;;5062218;28;20044;-74
2021/06/28 03:37:03;;;;;;;28.17;10.55;;;;;;;;;;5060671;28;20025;-74
2021/06/28 03:39:30;;;;;;;34.05;11.77;;;;;;;;;;5061853;28;20082;-75
2021/06/28 03:41:56;;;;;;;32.92;11.70;;;;;;;;;;5061820;28;20277;-74
2021/06/28 03:44:22;;;;;;;31.27;11.65;;;;;;;;;;5062224;28;20028;-74
2021/06/28 03:46:48;;;;;;;20.58;9.65;;;;;;;;;;5061771;28;20594;-74
2021/06/28 03:49:14;;;;;;;25.98;11.30;;;;;;;;;;5059892;28;20028;-74
2021/06/28 03:51:40;;;;;;;22.50;11.38;;;;;;;;;;5044173;28;21212;-74
2021/06/28 03:54:07;;;;;;;21.98;10.70;;;;;;;;;;5061283;28;20435;-75
2021/06/28 03:56:33;;;;;;;26.35;10.30;;;;;;;;;;5061597;28;20341;-74
2021/06/28 03:58:59;;;;;;;44.95;12.43;;;;;;;;;;5061548;28;20028;-74
2021/06/28 04:01:25;;;;;;;19.83;9.48;;;;;;;;;;5061905;28;20499;-74
2021/06/28 04:03:54;;;;;;;28.40;10.50;;;;;;;;;;5059538;28;20423;-75
2021/06/28 04:06:21;;;;;;;26.45;8.60;;;;;;;;;;5061247;28;20499;-74
2021/06/28 04:08:47;;;;;;;34.67;9.75;;;;;;;;;;5061794;28;21098;-74
2021/06/28 04:11:13;;;;;;;33.75;9.68;;;;;;;;;;5061190;28;20023;-74
2021/06/28 04:13:40;;;;;;;27.80;7.88;;;;;;;;;;5059178;28;20041;-75
2021/06/28 04:16:06;;;;;;;27.25;8.20;;;;;;;;;;5054539;28;20262;-74
2021/06/28 04:18:32;;;;;;;18.73;7.47;;;;;;;;;;5060925;28;20085;-74
2021/06/28 04:20:58;;;;;;;25.92;6.90;;;;;;;;;;5061566;28;20097;-74
2021/06/28 04:23:24;;;;;;;28.90;6.93;;;;;;;;;;5060966;28;20108;-74
2021/06/28 04:25:50;;;;;;;30.27;6.53;;;;;;;;;;5052295;28;20219;-75
2021/06/28 04:28:17;;;;;;;27.48;6.30;;;;;;;;;;5060845;28;20048;-74
2021/06/28 04:30:43;;;;;;;28.02;7.03;;;;;;;;;;5061036;28;20475;-74
2021/06/28 04:33:09;;;;;;;33.13;6.72;;;;;;;;;;5060755;28;20058;-75
2021/06/28 04:35:35;;;;;;;31.48;7.05;;;;;;;;;;5061060;28;20180;-74
2021/06/28 04:38:01;;;;;;;33.13;7.88;;;;;;;;;;5059079;28;20020;-74
2021/06/28 04:40:29;;;;;;;28.42;7.38;;;;;;;;;;5051701;28;20105;-75
2021/06/28 04:42:55;;;;;;;29.48;6.45;;;;;;;;;;5060379;28;20029;-75
2021/06/28 04:45:23;;;;;;;21.75;5.97;;;;;;;;;;5060773;28;20039;-74
2021/06/28 04:47:50;;;;;;;36.90;7.22;;;;;;;;;;5060646;28;20516;-75
2021/06/28 04:50:17;;;;;;;26.13;6.38;;;;;;;;;;5060098;28;20038;-75
2021/06/28 04:52:43;;;;;;;26.55;7.50;;;;;;;;;;5058816;28;20654;-74
2021/06/28 04:55:10;;;;;;;18.48;7.30;;;;;;;;;;5060692;28;20048;-75
2021/06/28 04:57:36;;;;;;;23.10;6.95;;;;;;;;;;5060676;28;20332;-74
2021/06/28 05:00:04;;;;;;;18.52;6.72;;;;;;;;;;5061177;28;20028;-75
2021/06/28 05:02:30;;;;;;;21.38;6.68;;;;;;;;;;5059099;28;20035;-74
2021/06/28 05:04:56;;;;;;;25.58;8.23;;;;;;;;;;5060679;28;20032;-74
2021/06/28 05:07:23;;;;;;;26.33;8.35;;;;;;;;;;5060730;28;20066;-74
2021/06/28 05:09:49;;;;;;;21.50;7.93;;;;;;;;;;5058779;28;20516;-74
2021/06/28 05:12:15;;;;;;;20.63;7.82;;;;;;;;;;5060422;28;20284;-75
2021/06/28 05:14:43;;;;;;;22.23;7.40;;;;;;;;;;5060273;28;20040;-74
2021/06/28 05:17:09;;;;;;;26.98;6.22;;;;;;;;;;5060424;28;20035;-74
2021/06/28 05:19:35;;;;;;;25.38;8.30;;;;;;;;;;5059201;28;20508;-74
2021/06/28 05:22:02;;;;;;;25.10;8.15;;;;;;;;;;5058811;28;20013;-75
2021/06/28 05:24:28;;;;;;;23.73;7.25;;;;;;;;;;5054830;28;20012;-74
2021/06/28 05:26:54;;;;;;;46.15;8.57;;;;;;;;;;5049455;28;20514;-73
2021/06/28 05:29:20;;;;;;;31.33;6.57;;;;;;;;;;5044164;28;20202;-74
2021/06/28 05:31:46;;;;;;;19.55;6.57;;;;;;;;;;5062605;28;20040;-74
2021/06/28 05:34:12;;;;;;;74.72;9.82;;;;;;;;;;5063357;28;20484;-77
2021/06/28 05:36:39;;;;;;;41.35;8.43;;;;;;;;;;5037017;28;20472;-76
2021/06/28 05:39:05;;;;;;;23.90;7.50;;;;;;;;;;5058006;28;20032;-73
2021/06/28 05:41:32;;;;;;;24.55;7.85;;;;;;;;;;5060126;28;20024;-73
2021/06/28 05:43:58;;;;;;;30.15;8.02;;;;;;;;;;5064973;28;20079;-73
2021/06/28 05:46:24;;;;;;;23.20;8.32;;;;;;;;;;5064786;28;20472;-73
2021/06/28 05:48:50;;;;;;;25.15;8.20;;;;;;;;;;5064801;28;20051;-74
2021/06/28 05:51:18;;;;;;;26.70;8.10;;;;;;;;;;5064460;28;20082;-73
2021/06/28 05:53:45;;;;;;;19.60;7.85;;;;;;;;;;5064882;28;20024;-74
2021/06/28 05:56:11;;;;;;;18.20;6.60;;;;;;;;;;5045369;28;20016;-74
2021/06/28 05:58:37;;;;;;;20.90;7.95;;;;;;;;;;5064344;28;20017;-75
2021/06/28 06:01:04;;;;;;;20.17;6.95;;;;;;;;;;5064473;28;20272;-74
2021/06/28 06:03:30;;;;;;;19.48;8.05;;;;;;;;;;5064030;28;20472;-74
2021/06/28 06:05:56;;;;;;;18.27;6.82;;;;;;;;;;5064486;28;20028;-73
2021/06/28 06:08:25;;;;;;;23.15;7.78;;;;;;;;;;5063413;28;20031;-74
2021/06/28 06:10:52;;;;;;;23.13;7.80;;;;;;;;;;5064767;28;20079;-73
2021/06/28 06:13:18;;;;;;;16.60;7.32;;;;;;;;;;5064778;28;20059;-74
2021/06/28 06:15:45;;;;;;;19.88;7.18;;;;;;;;;;5064467;28;20567;-73
2021/06/28 06:18:11;;;;;;;18.83;7.85;;;;;;;;;;5063079;28;20024;-74
2021/06/28 06:20:38;;;;;;;25.25;8.30;;;;;;;;;;5064309;28;20500;-74
2021/06/28 06:23:04;;;;;;;24.92;7.68;;;;;;;;;;5063993;28;20020;-73
2021/06/28 06:25:31;;;;;;;20.40;7.05;;;;;;;;;;5062641;28;20020;-74
2021/06/28 06:27:57;;;;;;;25.83;8.32;;;;;;;;;;5063428;28;20488;-74
2021/06/28 06:30:23;;;;;;;26.38;9.23;;;;;;;;;;5063867;28;20380;-74
2021/06/28 06:32:50;;;;;;;21.90;9.38;;;;;;;;;;5063653;28;20033;-73
2021/06/28 06:35:17;;;;;;;23.13;8.90;;;;;;;;;;5063800;28;20021;-75
2021/06/28 06:37:43;;;;;;;25.45;8.70;;;;;;;;;;5062621;28;20068;-74
2021/06/28 06:40:10;;;;;;;24.50;8.77;;;;;;;;;;5063023;28;20029;-73
2021/06/28 06:42:37;;;;;;;24.58;8.57;;;;;;;;;;5063077;28;20099;-73
2021/06/28 06:45:03;;;;;;;32.45;10.60;;;;;;;;;;5063789;28;20151;-74
2021/06/28 06:47:29;;;;;;;25.83;9.75;;;;;;;;;;5063531;28;20082;-74
2021/06/28 06:49:56;;;;;;;20.40;8.20;;;;;;;;;;5063844;28;20093;-74
2021/06/28 06:52:22;;;;;;;29.27;9.32;;;;;;;;;;5061856;28;20031;-74
2021/06/28 06:54:48;;;;;;;24.75;8.45;;;;;;;;;;5063318;28;20029;-73
2021/06/28 06:57:14;;;;;;;24.55;8.35;;;;;;;;;;5063308;28;20253;-73
2021/06/28 06:59:40;;;;;;;27.92;8.82;;;;;;;;;;5063396;28;20528;-74
2021/06/28 07:02:07;;;;;;;21.00;8.40;;;;;;;;;;5060677;28;20033;-73
2021/06/28 07:04:34;;;;;;;30.02;8.48;;;;;;;;;;5044621;28;20496;-74
2021/06/28 07:07:00;;;;;;;25.45;8.18;;;;;;;;;;5053630;28;20024;-73
2021/06/28 07:09:30;;;;;;;16.15;7.78;;;;;;;;;;5063356;28;20114;-73
2021/06/28 07:11:56;;;;;;;21.33;8.93;;;;;;;;;;5063367;28;20032;-73
2021/06/28 07:14:24;;;;;;;35.30;9.48;;;;;;;;;;5048179;28;20064;-74
2021/06/28 07:16:50;;;;;;;25.90;8.95;;;;;;;;;;5059577;28;20104;-74
2021/06/28 07:19:16;;;;;;;26.23;8.98;;;;;;;;;;5043837;28;20055;-74
2021/06/28 07:21:42;;;;;;;26.70;8.68;;;;;;;;;;5057372;28;20021;-75
2021/06/28 07:24:09;;;;;;;23.55;8.85;;;;;;;;;;5054088;28;20050;-74
2021/06/28 07:26:35;;;;;;;23.63;8.68;;;;;;;;;;5055454;28;20678;-74
2021/06/28 07:29:02;;;;;;;20.83;8.30;;;;;;;;;;5051874;28;20568;-73
2021/06/28 07:31:28;;;;;;;23.80;8.07;;;;;;;;;;5060650;28;20031;-74
2021/06/28 07:33:54;;;;;;;24.15;8.05;;;;;;;;;;5043738;28;20025;-73
2021/06/28 07:36:20;;;;;;;16.65;7.47;;;;;;;;;;5054864;28;20041;-74
2021/06/28 07:38:46;;;;;;;21.38;6.97;;;;;;;;;;5057187;28;20186;-74
2021/06/28 07:41:13;;;;;;;24.05;8.07;;;;;;;;;;5050800;28;20028;-76
2021/06/28 07:43:39;;;;;;;19.08;7.25;;;;;;;;;;5052852;28;20044;-75
2021/06/28 07:46:06;;;;;;;18.50;6.75;;;;;;;;;;5049000;28;20469;-74
2021/06/28 07:48:32;;;;;;;22.73;7.95;;;;;;;;;;5054450;28;20040;-75
2021/06/28 07:50:58;;;;;;;24.38;7.18;;;;;;;;;;5058027;28;20032;-75
2021/06/28 07:53:24;;;;;;;18.60;6.95;;;;;;;;;;5033485;28;20523;-75
2021/06/28 07:55:50;;;;;;;17.65;6.72;;;;;;;;;;5054934;28;20089;-75
2021/06/28 07:58:16;;;;;;;24.48;7.93;;;;;;;;;;5053885;28;20067;-75
2021/06/28 08:00:43;;;;;;;23.60;7.82;;;;;;;;;;5039845;28;20040;-75
2021/06/28 08:03:09;;;;;;;17.77;6.50;;;;;;;;;;5052353;28;20035;-75
2021/06/28 08:05:36;;;;;;;19.17;6.80;;;;;;;;;;5051509;28;20017;-76
2021/06/28 08:08:03;;;;;;;25.48;8.10;;;;;;;;;;5057356;28;20020;-75
2021/06/28 08:10:29;;;;;;;19.08;7.60;;;;;;;;;;5049545;28;20082;-76
2021/06/28 08:12:55;;;;;;;16.50;7.47;;;;;;;;;;5052644;28;20035;-75
2021/06/28 08:15:21;;;;;;;22.65;8.52;;;;;;;;;;5055350;28;20030;-75
2021/06/28 08:17:48;;;;;;;20.23;8.65;;;;;;;;;;5049590;28;20024;-75
2021/06/28 08:20:15;;;;;;;20.35;7.15;;;;;;;;;;5050391;28;20078;-75
2021/06/28 08:22:43;;;;;;;29.52;8.70;;;;;;;;;;5050953;28;20250;-75
2021/06/28 08:25:09;;;;;;;23.90;8.73;;;;;;;;;;5054139;28;20226;-75
2021/06/28 08:27:36;;;;;;;25.13;8.63;;;;;;;;;;5052737;28;20455;-75
2021/06/28 08:30:02;;;;;;;25.63;9.38;;;;;;;;;;5052196;28;20110;-75
2021/06/28 08:32:28;;;;;;;26.42;8.93;;;;;;;;;;5038159;28;20024;-75
2021/06/28 08:34:55;;;;;;;25.17;9.23;;;;;;;;;;5047710;28;20604;-75
2021/06/28 08:37:22;;;;;;;23.83;9.50;;;;;;;;;;5060731;28;20074;-75
2021/06/28 08:39:49;;;;;;;27.88;9.40;;;;;;;;;;5058759;28;20100;-76
2021/06/28 08:42:15;;;;;;;27.98;8.85;;;;;;;;;;5050270;28;20100;-76
2021/06/28 08:44:44;;;;;;;26.17;8.05;;;;;;;;;;5057807;28;20028;-75
2021/06/28 08:47:10;;;;;;;26.48;8.07;;;;;;;;;;5056679;28;20046;-75
2021/06/28 08:49:37;;;;;;;23.67;6.95;;;;;;;;;;5048497;28;20021;-75
2021/06/28 08:52:04;;;;;;;28.75;7.45;;;;;;;;;;5052705;28;20024;-75
2021/06/28 08:54:30;;;;;;;17.63;5.78;;;;;;;;;;5060574;28;20144;-76
2021/06/28 08:56:57;;;;;;;28.02;7.03;;;;;;;;;;5056619;28;20044;-75
2021/06/28 08:59:24;;;;;;;21.52;7.25;;;;;;;;;;5054977;28;20036;-75
2021/06/28 09:01:50;;;;;;;29.88;8.05;;;;;;;;;;5050098;28;20261;-75
2021/06/28 09:04:17;;;;;;;21.90;7.15;;;;;;;;;;5048190;28;20387;-75
2021/06/28 09:06:44;;;;;;;25.63;7.40;;;;;;;;;;5055983;28;20086;-75
2021/06/28 09:09:12;;;;;;;19.63;7.30;;;;;;;;;;5054166;28;20129;-75
2021/06/28 09:11:42;;;;;;;33.28;8.38;;;;;;;;;;5056269;28;20707;-76
2021/06/28 09:14:10;;;;;;;18.60;7.03;;;;;;;;;;5052209;28;20490;-75
2021/06/28 09:16:37;;;;;;;26.95;6.82;;;;;;;;;;5050454;28;20023;-75
2021/06/28 09:19:15;;;;;;;21.63;6.80;;;;;;;;;;5056139;28;20028;-75
2021/06/28 09:21:46;;;;;;;28.88;7.00;;;;;;;;;;5043655;28;20032;-76
2021/06/28 09:24:27;;;;;;;32.00;8.25;;;;;;;;;;5039513;28;20108;-75
2021/06/28 09:26:55;;;;;;;19.67;7.00;;;;;;;;;;5053105;28;20244;-74
2021/06/28 09:29:35;;;;;;;27.30;7.63;;;;;;;;;;5036799;28;20041;-75
2021/06/28 09:32:09;;;;;;;21.77;6.55;;;;;;;;;;5025074;28;20167;-75
2021/06/28 09:34:35;;;;;;;24.08;7.22;;;;;;;;;;5023865;28;20140;-75
2021/06/28 09:37:01;;;;;;;20.13;6.13;;;;;;;;;;5029945;28;20013;-75
2021/06/28 09:39:29;;;;;;;18.80;6.70;;;;;;;;;;5025799;28;20601;-75
2021/06/28 09:41:59;;;;;;;18.45;6.47;;;;;;;;;;5027036;28;20481;-74
2021/06/28 09:44:27;;;;;;;26.60;7.37;;;;;;;;;;5038831;28;20025;-77
2021/06/28 09:47:04;;;;;;;21.85;6.13;;;;;;;;;;5018792;28;20288;-80
2021/06/28 09:49:30;;;;;;;22.10;6.88;;;;;;;;;;5028379;28;20477;-77
2021/06/28 09:51:56;;;;;;;23.27;7.38;;;;;;;;;;5031185;28;20032;-76
2021/06/28 09:54:22;;;;;;;25.10;6.82;;;;;;;;;;5031616;28;20035;-77
2021/06/28 09:56:53;;;;;;;24.08;6.63;;;;;;;;;;5033572;28;20030;-78
2021/06/28 09:59:27;;;;;;;31.75;7.57;;;;;;;;;;5031897;28;20107;-77
2021/06/28 10:02:14;;;;;;;28.58;7.47;;;;;;;;;;5030534;28;20096;-78
2021/06/28 10:04:47;;;;;;;20.60;6.90;;;;;;;;;;5032779;28;20459;-77
2021/06/28 10:07:17;;;;;;;22.73;6.72;;;;;;;;;;5035244;28;20430;-76
2021/06/28 10:09:44;;;;;;;18.67;6.85;;;;;;;;;;5031361;28;20508;-76
2021/06/28 10:12:18;;;;;;;18.95;7.10;;;;;;;;;;5025909;28;20037;-78
2021/06/28 10:14:44;;;;;;;21.92;6.97;;;;;;;;;;5013634;28;20060;-77
2021/06/28 10:17:10;;;;;;;25.50;7.40;;;;;;;;;;5037662;28;20021;-77
2021/06/28 10:19:36;;;;;;;21.35;6.65;;;;;;;;;;5033029;28;20029;-76
2021/06/28 10:22:03;;;;;;;21.63;6.93;;;;;;;;;;5039477;28;20215;-74
2021/06/28 10:24:29;;;;;;;25.65;6.90;;;;;;;;;;5008316;28;20423;-73
2021/06/28 10:26:55;;;;;;;18.38;6.22;;;;;;;;;;5031819;28;20095;-73
2021/06/28 10:29:21;;;;;;;21.05;6.32;;;;;;;;;;5044356;28;20637;-76
2021/06/28 10:31:47;;;;;;;23.63;6.32;;;;;;;;;;5035087;28;20079;-74
2021/06/28 10:34:14;;;;;;;30.08;5.90;;;;;;;;;;5036114;28;20033;-73
2021/06/28 10:36:40;;;;;;;19.15;6.30;;;;;;;;;;5034352;28;20029;-74
2021/06/28 10:39:10;;;;;;;23.48;6.60;;;;;;;;;;5039157;28;20028;-73
2021/06/28 10:41:41;;;;;;;27.30;6.53;;;;;;;;;;5038583;28;20019;-74
2021/06/28 10:44:08;;;;;;;18.80;6.78;;;;;;;;;;5018928;28;20575;-74
2021/06/28 10:46:39;;;;;;;28.90;6.38;;;;;;;;;;5033652;28;20029;-77
2021/06/28 10:49:06;;;;;;;22.63;6.47;;;;;;;;;;5035754;28;20037;-77
2021/06/28 10:51:38;;;;;;;24.80;6.90;;;;;;;;;;5038057;28;20818;-73
2021/06/28 10:54:05;;;;;;;26.05;7.00;;;;;;;;;;5040012;28;20032;-73
2021/06/28 10:56:32;;;;;;;22.23;6.90;;;;;;;;;;5034840;28;20391;-74
2021/06/28 10:59:03;;;;;;;19.70;6.15;;;;;;;;;;5041146;28;20087;-76
2021/06/28 11:01:35;;;;;;;22.08;7.18;;;;;;;;;;5039705;28;20018;-75
2021/06/28 11:04:09;;;;;;;24.48;7.03;;;;;;;;;;5032022;28;20043;-76
2021/06/28 11:06:36;;;;;;;25.98;7.80;;;;;;;;;;5030595;28;20425;-75
2021/06/28 11:09:06;;;;;;;22.30;6.18;;;;;;;;;;5041105;28;20059;-75
2021/06/28 11:11:44;;;;;;;17.27;6.30;;;;;;;;;;5028579;28;20029;-74
2021/06/28 11:14:11;;;;;;;20.90;6.93;;;;;;;;;;5035987;28;20037;-76
2021/06/28 11:16:38;;;;;;;19.98;5.22;;;;;;;;;;5038176;28;20025;-75
2021/06/28 11:19:24;;;;;;;20.42;6.30;;;;;;;;;;5033416;28;20616;-76
2021/06/28 11:21:50;;;;;;;17.92;5.82;;;;;;;;;;5015167;28;20025;-75
2021/06/28 11:24:32;;;;;;;14.73;6.53;;;;;;;;;;5038091;28;20032;-75
2021/06/28 11:27:17;;;;;;;15.63;5.60;;;;;;;;;;5034398;28;20033;-76
2021/06/28 11:29:54;;;;;;;20.55;7.18;;;;;;;;;;5047378;28;20068;-75
2021/06/28 11:32:23;;;;;;;21.77;7.13;;;;;;;;;;5057729;28;20134;-75
2021/06/28 11:34:50;;;;;;;20.27;6.50;;;;;;;;;;5060248;28;20091;-75
2021/06/28 11:37:16;;;;;;;21.58;7.30;;;;;;;;;;5052197;28;20055;-75
2021/06/28 11:40:02;;;;;;;24.33;7.43;;;;;;;;;;5059110;28;20040;-76
2021/06/28 11:42:37;;;;;;;22.10;7.05;;;;;;;;;;5053421;28;20373;-75
2021/06/28 11:45:03;;;;;;;16.67;6.40;;;;;;;;;;5053806;28;20054;-76
2021/06/28 11:47:45;;;;;;;23.65;6.78;;;;;;;;;;5047728;28;20497;-76
2021/06/28 11:50:26;;;;;;;19.27;7.18;;;;;;;;;;5064792;28;20024;-76
2021/06/28 11:52:57;;;;;;;20.98;7.10;;;;;;;;;;5061243;28;20036;-75
2021/06/28 11:55:23;;;;;;;;;;;;;;;;;;5061026;28;20396;-75
2021/06/28 11:57:56;;;;;;;24.92;8.18;;;;;;;;;;5052144;28;19908;-74
2021/06/28 12:00:23;;;;;;;26.25;9.45;;;;;;;;;;5071131;28;20051;-75
2021/06/28 12:03:08;;;;;;;34.78;8.45;;;;;;;;;;5058268;28;20074;-76
2021/06/28 12:05:34;;;;;;;38.25;8.82;;;;;;;;;;5059689;28;20505;-74
2021/06/28 12:08:01;;;;;;;38.30;9.90;;;;;;;;;;5053246;28;20028;-74
2021/06/28 12:10:27;;;;;;;36.05;8.90;;;;;;;;;;5049634;28;20418;-75
2021/06/28 12:12:57;;;;;;;29.67;8.18;;;;;;;;;;5049339;28;20033;-74
2021/06/28 12:15:29;;;;;;;36.30;8.15;;;;;;;;;;5041963;28;20091;-75
2021/06/28 12:17:56;;;;;;;31.23;8.70;;;;;;;;;;5046985;28;20477;-75
2021/06/28 12:20:22;;;;;;;27.75;8.95;;;;;;;;;;5047134;28;20024;-74
2021/06/28 12:22:51;;;;;;;36.90;9.25;;;;;;;;;;5047312;28;20075;-74
2021/06/28 12:25:18;;;;;;;23.67;8.55;;;;;;;;;;5038377;28;20028;-74
2021/06/28 12:27:46;;;;;;;27.33;7.32;;;;;;;;;;5047233;28;20116;-74
2021/06/28 12:30:13;;;;;;;25.13;7.75;;;;;;;;;;5033475;28;20036;-75
2021/06/28 12:32:45;;;;;;;28.88;8.23;;;;;;;;;;5034734;28;20076;-75
2021/06/28 12:35:11;;;;;;;;;;;;;;;;;;5034114;28;20036;-76
2021/06/28 12:37:38;;;;;;;33.97;8.95;;;;;;;;;;5035962;28;20360;-76
2021/06/28 12:40:14;;;;;;;34.88;9.38;;;;;;;;;;5039404;28;20350;-74
2021/06/28 12:42:41;;;;;;;35.03;8.68;;;;;;;;;;5040377;28;20033;-76
2021/06/28 12:45:08;;;;;;;25.95;7.95;;;;;;;;;;5028075;28;20357;-75
2021/06/28 12:47:34;;;;;;;28.17;8.07;;;;;;;;;;5030852;28;20021;-78
2021/06/28 12:50:00;;;;;;;37.42;8.98;;;;;;;;;;5033694;28;20029;-75
2021/06/28 12:52:31;;;;;;;35.20;8.48;;;;;;;;;;5041395;28;20036;-76
2021/06/28 12:55:02;;;;;;;27.45;7.93;;;;;;;;;;5021964;28;20060;-78
2021/06/28 12:57:29;;;;;;;32.95;8.73;;;;;;;;;;5022325;28;20048;-76
2021/06/28 12:59:55;;;;;;;30.80;7.55;;;;;;;;;;5037153;28;20025;-76
2021/06/28 13:02:32;;;;;;;23.90;7.88;;;;;;;;;;5027487;28;20030;-76
2021/06/28 13:05:08;;;;;;;28.60;7.47;;;;;;;;;;5028107;28;20027;-75
2021/06/28 13:07:35;;;;;;;34.72;8.40;;;;;;;;;;5038531;28;20079;-76
2021/06/28 13:10:03;;;;;;;27.00;7.50;;;;;;;;;;5020248;28;20167;-75
2021/06/28 13:12:30;;;;;;;24.17;6.88;;;;;;;;;;5038798;28;20025;-75
2021/06/28 13:15:18;;;;;;;31.25;8.32;;;;;;;;;;5020863;28;20147;-76
2021/06/28 13:17:44;;;;;;;30.58;8.63;;;;;;;;;;5008836;28;20030;-76
2021/06/28 13:20:20;;;;;;;30.52;7.80;;;;;;;;;;5029685;28;20338;-75
2021/06/28 13:22:46;;;;;;;26.50;7.03;;;;;;;;;;5036438;28;20257;-76
2021/06/28 13:25:20;;;;;;;32.42;8.60;;;;;;;;;;5010876;28;20372;-77
2021/06/28 13:27:46;;;;;;;24.90;7.43;;;;;;;;;;5023276;28;20075;-77
2021/06/28 13:30:22;;;;;;;20.77;6.15;;;;;;;;;;5050817;28;20437;-77
2021/06/28 13:32:49;;;;;;;30.38;8.23;;;;;;;;;;5043132;28;20032;-75
2021/06/28 13:35:36;;;;;;;28.23;8.50;;;;;;;;;;5044301;28;20078;-78
2021/06/28 13:38:06;;;;;;;26.58;7.32;;;;;;;;;;5042860;28;20025;-75
2021/06/28 13:40:33;;;;;;;29.13;7.45;;;;;;;;;;5042691;28;20041;-76
2021/06/28 13:42:59;;;;;;;24.15;7.45;;;;;;;;;;5027505;28;20108;-77
2021/06/28 13:45:29;;;;;;;21.40;7.82;;;;;;;;;;5043732;28;20381;-75
2021/06/28 13:48:01;;;;;;;26.00;8.23;;;;;;;;;;5044691;28;20393;-78
2021/06/28 13:50:36;;;;;;;24.85;7.75;;;;;;;;;;5056138;28;20029;-78
2021/06/28 13:53:06;;;;;;;28.05;7.97;;;;;;;;;;5040989;28;20388;-76
2021/06/28 13:55:32;;;;;;;24.50;6.88;;;;;;;;;;5063661;28;20775;-77
2021/06/28 13:57:59;;;;;;;30.65;7.78;;;;;;;;;;5064031;28;20283;-77
2021/06/28 14:00:26;;;;;;;20.83;6.80;;;;;;;;;;5062661;28;20032;-76
2021/06/28 14:02:53;;;;;;;19.80;7.35;;;;;;;;;;5063827;28;20024;-77
2021/06/28 14:05:19;;;;;;;22.65;7.97;;;;;;;;;;5064483;28;20423;-77
2021/06/28 14:07:45;;;;;;;24.10;8.20;;;;;;;;;;5063844;28;20020;-77
2021/06/28 14:10:12;;;;;;;18.88;7.03;;;;;;;;;;5062273;28;20029;-76
2021/06/28 14:12:39;;;;;;;28.85;7.95;;;;;;;;;;5063621;28;20090;-76
2021/06/28 14:15:06;;;;;;;27.70;8.05;;;;;;;;;;5063982;28;20485;-76
2021/06/28 14:17:32;;;;;;;30.10;7.72;;;;;;;;;;5064089;28;20033;-76
2021/06/28 14:19:58;;;;;;;23.73;7.50;;;;;;;;;;5063492;28;20025;-76
2021/06/28 14:22:25;;;;;;;23.75;8.07;;;;;;;;;;5043739;28;20022;-76
2021/06/28 14:24:52;;;;;;;14.98;7.38;;;;;;;;;;5063295;28;20267;-76
2021/06/28 14:27:18;;;;;;;23.25;7.47;;;;;;;;;;5063892;28;20631;-76
2021/06/28 14:29:44;;;;;;;23.30;7.82;;;;;;;;;;5061830;28;20049;-76
2021/06/28 14:32:10;;;;;;;26.45;7.85;;;;;;;;;;5058764;28;20028;-76